createdAt,value
2017-10-24T00:00:01.708Z,12.55
2017-10-24T00:02:29.247Z,12.56
2017-10-24T00:04:56.818Z,12.69
2017-10-24T00:07:24.575Z,12.80
2017-10-24T00:09:52.128Z,12.85
2017-10-24T00:12:19.691Z,12.65
2017-10-24T00:14:47.245Z,12.87
2017-10-24T00:17:14.749Z,13.01
2017-10-24T00:19:42.269Z,12.95
2017-10-24T00:22:09.819Z,12.94
2017-10-24T00:24:37.380Z,12.99
2017-10-24T00:27:04.940Z,13.06
2017-10-24T00:29:32.683Z,12.86
2017-10-24T00:32:00.202Z,12.84
2017-10-24T00:34:27.763Z,13.10
2017-10-24T00:36:55.396Z,13.18
2017-10-24T00:39:22.928Z,13.40
2017-10-24T00:41:50.444Z,13.29
2017-10-24T00:44:18.171Z,13.27
2017-10-24T00:46:45.718Z,12.97
2017-10-24T00:49:13.277Z,13.09
2017-10-24T00:51:41.179Z,13.27
2017-10-24T00:54:08.702Z,13.40
2017-10-24T00:56:36.215Z,13.11
2017-10-24T00:59:03.903Z,13.33
2017-10-24T01:01:31.424Z,13.16
2017-10-24T01:03:58.943Z,13.11
2017-10-24T01:06:26.705Z,13.35
2017-10-24T01:08:54.223Z,13.14
2017-10-24T01:11:21.762Z,13.17
2017-10-24T01:13:49.482Z,12.94
2017-10-24T01:16:16.991Z,13.13
2017-10-24T01:18:44.507Z,12.96
2017-10-24T01:21:12.263Z,13.03
2017-10-24T01:23:39.822Z,12.88
2017-10-24T01:26:07.381Z,12.90
2017-10-24T01:28:35.145Z,12.90
2017-10-24T01:33:29.579Z,12.60
2017-10-24T01:35:57.312Z,12.54
2017-10-24T01:38:24.869Z,12.72
2017-10-24T01:40:52.411Z,12.73
2017-10-24T01:43:19.978Z,12.75
2017-10-24T01:45:47.582Z,12.74
2017-10-24T01:48:15.108Z,12.76
2017-10-24T01:50:42.869Z,12.73
2017-10-24T01:53:10.428Z,12.86
2017-10-24T01:55:37.987Z,12.54
2017-10-24T01:58:05.751Z,12.29
2017-10-24T02:00:33.311Z,12.53
2017-10-24T02:03:00.865Z,12.61
2017-10-24T02:05:28.414Z,12.67
2017-10-24T02:07:55.937Z,12.64
2017-10-24T02:10:23.455Z,12.86
2017-10-24T02:12:51.310Z,12.73
2017-10-24T02:15:18.831Z,12.45
2017-10-24T02:17:46.432Z,12.44
2017-10-24T02:20:13.975Z,12.64
2017-10-24T02:22:41.492Z,12.49
2017-10-24T02:25:09.016Z,12.87
2017-10-24T02:27:36.766Z,12.67
2017-10-24T02:30:04.327Z,12.85
2017-10-24T02:32:31.847Z,12.73
2017-10-24T02:34:59.631Z,12.79
2017-10-24T02:37:27.148Z,12.30
2017-10-24T02:39:54.703Z,12.49
2017-10-24T02:42:22.347Z,12.39
2017-10-24T02:44:49.884Z,12.24
2017-10-24T02:47:17.402Z,12.34
2017-10-24T02:49:45.188Z,12.23
2017-10-24T02:52:12.718Z,12.60
2017-10-24T02:54:40.244Z,12.38
2017-10-24T02:57:07.992Z,12.54
2017-10-24T02:59:35.563Z,12.52
2017-10-24T03:02:03.106Z,12.33
2017-10-24T03:04:30.662Z,12.45
2017-10-24T03:06:58.184Z,12.50
2017-10-24T03:09:25.708Z,12.49
2017-10-24T03:11:53.444Z,12.36
2017-10-24T03:14:21.007Z,12.48
2017-10-24T03:16:48.514Z,12.36
2017-10-24T03:19:16.121Z,12.26
2017-10-24T03:21:43.682Z,12.53
2017-10-24T03:24:11.198Z,12.32
2017-10-24T03:26:39.091Z,12.34
2017-10-24T03:29:06.667Z,12.42
2017-10-24T03:31:34.224Z,12.44
2017-10-24T03:34:02.004Z,12.56
2017-10-24T03:36:29.527Z,12.42
2017-10-24T03:38:57.049Z,12.28
2017-10-24T03:41:24.972Z,12.37
2017-10-24T03:43:52.534Z,12.43
2017-10-24T03:46:20.093Z,12.44
2017-10-24T03:48:47.659Z,12.62
2017-10-24T03:51:15.209Z,12.56
2017-10-24T03:53:42.722Z,12.60
2017-10-24T03:56:10.519Z,12.43
2017-10-24T03:58:38.096Z,12.21
2017-10-24T04:01:05.675Z,12.37
2017-10-24T04:03:33.702Z,12.42
2017-10-24T04:06:01.232Z,12.55
2017-10-24T04:08:28.750Z,12.49
2017-10-24T04:10:56.688Z,12.50
2017-10-24T04:13:24.207Z,12.71
2017-10-24T04:15:51.744Z,12.67
2017-10-24T04:18:19.472Z,12.61
2017-10-24T04:20:47.000Z,12.63
2017-10-24T04:23:14.541Z,12.81
2017-10-24T04:25:42.346Z,12.73
2017-10-24T04:28:09.854Z,12.90
2017-10-24T04:30:37.382Z,12.80
2017-10-24T04:33:05.127Z,12.51
2017-10-24T04:35:32.841Z,12.93
2017-10-24T04:38:00.794Z,12.74
2017-10-24T04:40:29.160Z,12.78
2017-10-24T04:42:56.687Z,12.86
2017-10-24T04:45:24.219Z,12.88
2017-10-24T04:47:51.779Z,13.00
2017-10-24T04:50:19.294Z,12.82
2017-10-24T04:52:47.667Z,12.57
2017-10-24T04:55:15.224Z,12.71
2017-10-24T04:57:43.403Z,12.71
2017-10-24T05:00:10.959Z,12.87
2017-10-24T05:02:38.740Z,12.97
2017-10-24T05:05:06.282Z,12.94
2017-10-24T05:07:34.251Z,12.76
2017-10-24T05:10:02.017Z,12.97
2017-10-24T05:12:29.542Z,13.07
2017-10-24T05:14:57.067Z,13.12
2017-10-24T05:17:24.998Z,12.85
2017-10-24T05:19:52.557Z,13.12
2017-10-24T05:22:20.131Z,13.14
2017-10-24T05:24:47.781Z,12.88
2017-10-24T05:27:15.358Z,12.74
2017-10-24T05:29:42.896Z,12.70
2017-10-24T05:32:10.839Z,13.04
2017-10-24T05:34:38.357Z,12.85
2017-10-24T05:37:05.880Z,12.72
2017-10-24T05:39:33.448Z,12.89
2017-10-24T05:42:00.999Z,12.75
2017-10-24T05:44:28.576Z,12.94
2017-10-24T05:46:56.142Z,12.88
2017-10-24T05:49:23.676Z,13.17
2017-10-24T05:51:51.254Z,13.06
2017-10-24T05:54:18.979Z,13.00
2017-10-24T05:56:46.495Z,13.15
2017-10-24T05:59:14.021Z,13.16
2017-10-24T06:01:41.578Z,13.10
2017-10-24T06:04:09.097Z,13.14
2017-10-24T06:06:36.616Z,12.91
2017-10-24T06:09:04.461Z,13.16
2017-10-24T06:11:32.016Z,13.23
2017-10-24T06:13:59.540Z,13.21
2017-10-24T06:16:27.148Z,13.32
2017-10-24T06:18:54.693Z,13.14
2017-10-24T06:21:22.252Z,13.38
2017-10-24T06:23:50.016Z,13.13
2017-10-24T06:26:17.576Z,13.29
2017-10-24T06:28:45.097Z,13.37
2017-10-24T06:31:12.983Z,13.39
2017-10-24T06:33:40.494Z,13.18
2017-10-24T06:36:08.018Z,13.28
2017-10-24T06:38:35.867Z,13.42
2017-10-24T06:41:03.442Z,13.39
2017-10-24T06:43:31.018Z,13.45
2017-10-24T06:45:59.072Z,13.41
2017-10-24T06:48:26.630Z,13.40
2017-10-24T06:50:54.199Z,13.50
2017-10-24T06:53:21.863Z,13.59
2017-10-24T06:55:49.410Z,13.41
2017-10-24T06:58:16.970Z,13.58
2017-10-24T07:00:44.815Z,13.65
2017-10-24T07:03:12.336Z,13.70
2017-10-24T07:05:39.864Z,13.91
2017-10-24T07:08:07.595Z,13.83
2017-10-24T07:10:35.175Z,13.84
2017-10-24T07:13:02.706Z,13.76
2017-10-24T07:15:30.496Z,13.83
2017-10-24T07:17:58.015Z,14.12
2017-10-24T07:20:25.563Z,13.90
2017-10-24T07:22:53.494Z,13.58
2017-10-24T07:25:21.019Z,13.68
2017-10-24T07:27:48.548Z,13.88
2017-10-24T07:30:16.412Z,13.85
2017-10-24T07:32:43.937Z,13.41
2017-10-24T07:35:11.487Z,13.70
2017-10-24T07:37:39.063Z,13.42
2017-10-24T07:40:06.578Z,13.57
2017-10-24T07:42:34.112Z,13.67
2017-10-24T07:45:01.922Z,13.40
2017-10-24T07:47:29.447Z,13.50
2017-10-24T07:49:56.968Z,13.54
2017-10-24T07:52:24.547Z,13.42
2017-10-24T07:54:52.107Z,13.44
2017-10-24T07:57:19.639Z,13.53
2017-10-24T07:59:47.203Z,13.88
2017-10-24T08:02:14.728Z,14.15
2017-10-24T08:04:42.315Z,14.19
2017-10-24T08:07:10.061Z,14.47
2017-10-24T08:09:37.614Z,14.63
2017-10-24T08:12:05.175Z,14.34
2017-10-24T08:14:32.919Z,14.65
2017-10-24T08:17:00.428Z,14.80
2017-10-24T08:19:27.943Z,14.61
2017-10-24T08:21:55.513Z,15.15
2017-10-24T08:24:23.584Z,14.94
2017-10-24T08:26:51.145Z,14.99
2017-10-24T08:29:18.716Z,14.70
2017-10-24T08:31:46.235Z,14.79
2017-10-24T08:34:13.754Z,14.83
2017-10-24T08:36:41.603Z,14.98
2017-10-24T08:39:09.124Z,14.80
2017-10-24T08:41:36.639Z,14.76
2017-10-24T08:44:04.466Z,14.76
2017-10-24T08:46:32.026Z,14.78
2017-10-24T08:48:59.585Z,14.45
2017-10-24T08:51:27.759Z,14.58
2017-10-24T08:53:55.317Z,15.15
2017-10-24T08:56:23.286Z,15.52
2017-10-24T08:58:51.048Z,15.47
2017-10-24T09:01:30.694Z,16.02
2017-10-24T09:03:58.451Z,16.21
2017-10-24T09:06:35.845Z,16.83
2017-10-24T09:12:20.358Z,16.94
2017-10-24T09:14:48.072Z,17.30
2017-10-24T09:17:37.272Z,17.45
2017-10-24T09:20:05.920Z,18.56
2017-10-24T09:22:33.431Z,18.16
2017-10-24T09:25:00.950Z,17.79
2017-10-24T09:27:29.636Z,17.48
2017-10-24T09:29:57.157Z,17.30
2017-10-24T09:32:28.200Z,17.46
2017-10-24T09:34:55.743Z,17.36
2017-10-24T09:37:23.275Z,17.66
2017-10-24T09:39:51.007Z,17.84
2017-10-24T09:42:18.515Z,17.81
2017-10-24T09:44:46.035Z,17.53
2017-10-24T09:47:13.583Z,17.45
2017-10-24T09:49:41.099Z,17.25
2017-10-24T09:52:08.611Z,17.94
2017-10-24T09:54:43.128Z,17.91
2017-10-24T09:57:10.644Z,18.20
2017-10-24T09:59:38.167Z,18.15
2017-10-24T10:02:05.735Z,18.33
2017-10-24T10:04:33.262Z,18.37
2017-10-24T10:07:10.698Z,18.19
2017-10-24T10:09:38.220Z,18.19
2017-10-24T10:12:09.668Z,17.90
2017-10-24T10:14:37.424Z,17.57
2017-10-24T10:17:04.987Z,17.85
2017-10-24T10:19:32.503Z,18.74
2017-10-24T10:22:00.291Z,18.26
2017-10-24T10:24:43.658Z,18.86
2017-10-24T10:27:11.237Z,19.45
2017-10-24T10:29:38.760Z,19.52
2017-10-24T10:32:06.316Z,19.63
2017-10-24T10:34:34.078Z,20.26
2017-10-24T10:37:02.557Z,20.27
2017-10-24T10:39:30.124Z,19.62
2017-10-24T10:41:57.860Z,19.58
2017-10-24T10:44:25.378Z,19.64
2017-10-24T10:46:52.899Z,19.85
2017-10-24T10:49:20.454Z,20.21
2017-10-24T10:51:48.014Z,21.68
2017-10-24T10:54:15.575Z,22.42
2017-10-24T10:56:43.320Z,22.40
2017-10-24T10:59:10.832Z,23.41
2017-10-24T11:01:38.354Z,24.83
2017-10-24T11:04:06.220Z,26.02
2017-10-24T11:06:33.731Z,24.50
2017-10-24T11:09:01.256Z,23.02
2017-10-24T11:11:28.990Z,22.08
2017-10-24T11:13:56.561Z,22.25
2017-10-24T11:16:24.117Z,22.77
2017-10-24T11:18:51.780Z,22.37
2017-10-24T11:21:19.339Z,22.74
2017-10-24T11:23:46.863Z,24.20
2017-10-24T11:26:14.542Z,25.30
2017-10-24T11:28:42.065Z,26.29
2017-10-24T11:31:09.583Z,27.15
2017-10-24T11:33:37.502Z,27.61
2017-10-24T11:36:05.204Z,27.85
2017-10-24T11:38:32.795Z,26.48
2017-10-24T11:41:00.361Z,27.43
2017-10-24T11:43:27.893Z,29.59
2017-10-24T11:45:55.437Z,30.27
2017-10-24T11:48:23.205Z,30.42
2017-10-24T11:50:50.763Z,28.03
2017-10-24T11:53:18.324Z,26.70
2017-10-24T11:55:46.291Z,27.63
2017-10-24T11:58:13.870Z,27.92
2017-10-24T12:00:41.412Z,28.17
2017-10-24T12:03:09.173Z,28.10
2017-10-24T12:05:37.655Z,28.18
2017-10-24T12:08:05.214Z,27.75
2017-10-24T12:10:33.180Z,27.00
2017-10-24T12:13:00.692Z,26.30
2017-10-24T12:15:28.210Z,25.30
2017-10-24T12:17:56.151Z,24.27
2017-10-24T12:20:23.676Z,24.18
2017-10-24T12:22:51.196Z,23.22
2017-10-24T12:25:18.928Z,23.09
2017-10-24T12:27:46.459Z,22.38
2017-10-24T12:30:13.979Z,22.23
2017-10-24T12:32:41.643Z,21.17
2017-10-24T12:35:09.171Z,20.61
2017-10-24T12:37:36.716Z,20.67
2017-10-24T12:40:04.489Z,20.71
2017-10-24T12:42:46.930Z,19.92
2017-10-24T12:45:16.228Z,20.33
2017-10-24T12:47:43.777Z,20.17
2017-10-24T12:50:16.040Z,20.38
2017-10-24T12:52:43.665Z,20.23
2017-10-24T12:55:11.183Z,20.62
2017-10-24T12:57:54.582Z,20.52
2017-10-24T13:00:22.110Z,20.94
2017-10-24T13:02:50.030Z,21.24
2017-10-24T13:05:18.276Z,21.65
2017-10-24T13:07:45.861Z,22.31
2017-10-24T13:10:13.403Z,22.21
2017-10-24T13:12:41.070Z,22.37
2017-10-24T13:15:08.631Z,22.26
2017-10-24T13:17:36.151Z,22.15
2017-10-24T13:20:04.157Z,21.40
2017-10-24T13:22:31.819Z,21.21
2017-10-24T13:24:59.396Z,21.55
2017-10-24T13:27:27.115Z,21.50
2017-10-24T13:29:54.702Z,21.30
2017-10-24T13:32:22.451Z,21.26
2017-10-24T13:34:50.334Z,21.06
2017-10-24T13:37:17.892Z,20.79
2017-10-24T13:39:45.679Z,21.20
2017-10-24T13:42:13.399Z,21.51
2017-10-24T13:44:40.931Z,21.14
2017-10-24T13:47:08.640Z,20.72
2017-10-24T13:49:36.403Z,21.07
2017-10-24T13:52:04.065Z,20.95
2017-10-24T13:54:31.726Z,20.96
2017-10-24T13:56:59.387Z,21.47
2017-10-24T13:59:27.051Z,21.36
2017-10-24T14:01:54.590Z,21.42
2017-10-24T14:04:28.074Z,21.22
2017-10-24T14:07:01.176Z,21.09
2017-10-24T14:09:34.692Z,20.88
2017-10-24T14:12:02.254Z,20.78
2017-10-24T14:14:29.812Z,20.82
2017-10-24T14:16:57.658Z,20.63
2017-10-24T14:19:25.238Z,20.73
2017-10-24T14:21:52.909Z,20.63
2017-10-24T14:24:20.773Z,20.82
2017-10-24T14:26:48.424Z,20.67
2017-10-24T14:29:16.081Z,20.79
2017-10-24T14:31:44.035Z,20.91
2017-10-24T14:34:11.735Z,20.78
2017-10-24T14:36:39.483Z,20.74
2017-10-24T14:39:07.370Z,20.68
2017-10-24T14:41:34.924Z,20.65
2017-10-24T14:44:03.288Z,20.64
2017-10-24T14:46:31.032Z,20.58
2017-10-24T14:48:58.560Z,20.51
2017-10-24T14:51:26.277Z,20.39
2017-10-24T14:53:54.033Z,20.28
2017-10-24T14:56:21.707Z,20.27
2017-10-24T14:58:49.253Z,20.30
2017-10-24T15:01:17.018Z,20.21
2017-10-24T15:03:44.567Z,20.39
2017-10-24T15:06:12.264Z,20.27
2017-10-24T15:08:40.004Z,20.27
2017-10-24T15:11:07.573Z,20.25
2017-10-24T15:13:35.233Z,20.29
2017-10-24T15:16:03.184Z,20.22
2017-10-24T15:18:30.752Z,20.28
2017-10-24T15:20:58.312Z,20.24
2017-10-24T15:23:26.060Z,20.15
2017-10-24T15:25:53.636Z,20.20
2017-10-24T15:28:21.295Z,20.17
2017-10-24T15:30:49.365Z,20.10
2017-10-24T15:33:16.940Z,20.12
2017-10-24T15:35:44.499Z,20.13
2017-10-24T15:38:12.106Z,19.95
2017-10-24T15:40:39.808Z,19.92
2017-10-24T15:43:07.468Z,19.86
2017-10-24T15:45:35.333Z,19.81
2017-10-24T15:48:02.883Z,19.78
2017-10-24T15:50:30.648Z,19.68
2017-10-24T15:52:58.675Z,19.56
2017-10-24T15:55:26.499Z,19.41
2017-10-24T15:57:54.768Z,19.27
2017-10-24T16:00:22.639Z,19.13
2017-10-24T16:02:50.910Z,18.99
2017-10-24T16:05:18.782Z,18.88
2017-10-24T16:07:46.950Z,18.74
2017-10-24T16:10:14.816Z,18.68
2017-10-24T16:12:42.597Z,18.66
2017-10-24T16:15:10.856Z,18.66
2017-10-24T16:17:38.627Z,18.62
2017-10-24T16:20:06.287Z,18.54
2017-10-24T16:22:33.950Z,18.44
2017-10-24T16:25:02.527Z,18.32
2017-10-24T16:27:30.291Z,18.23
2017-10-24T16:29:58.361Z,18.14
2017-10-24T16:32:26.011Z,18.09
2017-10-24T16:34:53.582Z,18.01
2017-10-24T16:37:21.654Z,17.87
2017-10-24T16:39:49.198Z,17.74
2017-10-24T16:42:16.883Z,17.62
2017-10-24T16:44:44.954Z,17.55
2017-10-24T16:47:12.914Z,17.52
2017-10-24T16:49:41.011Z,17.53
2017-10-24T16:52:08.854Z,17.50
2017-10-24T16:54:36.518Z,17.42
2017-10-24T16:57:04.584Z,17.32
2017-10-24T16:59:32.453Z,17.26
2017-10-24T17:02:00.111Z,17.18
2017-10-24T17:04:27.774Z,17.11
2017-10-24T17:06:55.959Z,17.00
2017-10-24T17:09:23.561Z,16.99
2017-10-24T17:11:51.270Z,17.03
2017-10-24T17:14:19.381Z,17.03
2017-10-24T17:16:47.119Z,16.94
2017-10-24T17:19:14.867Z,16.87
2017-10-24T17:21:42.941Z,16.77
2017-10-24T17:24:10.861Z,16.68
2017-10-24T17:26:38.586Z,16.58
2017-10-24T17:29:06.641Z,16.57
2017-10-24T17:31:34.411Z,16.44
2017-10-24T17:34:02.150Z,16.46
2017-10-24T17:36:30.054Z,16.45
2017-10-24T17:38:57.811Z,16.40
2017-10-24T17:41:25.564Z,16.34
2017-10-24T17:43:53.429Z,16.27
2017-10-24T17:46:21.296Z,16.23
2017-10-24T17:48:49.079Z,16.16
2017-10-24T17:51:16.824Z,16.17
2017-10-24T17:53:44.785Z,16.06
2017-10-24T17:56:13.378Z,16.07
2017-10-24T17:58:41.243Z,16.07
2017-10-24T18:01:09.033Z,16.11
2017-10-24T18:03:36.769Z,16.11
2017-10-24T18:06:05.456Z,16.14
2017-10-24T18:08:33.322Z,16.17
2017-10-24T18:11:01.188Z,16.17
2017-10-24T18:13:28.785Z,16.11
2017-10-24T18:15:57.124Z,16.19
2017-10-24T18:18:24.902Z,16.24
2017-10-24T18:20:53.677Z,16.15
2017-10-24T18:23:21.460Z,16.25
2017-10-24T18:25:49.718Z,16.08
2017-10-24T18:28:17.380Z,16.04
2017-10-24T18:30:45.156Z,16.12
2017-10-24T18:33:13.022Z,16.26
2017-10-24T18:35:41.901Z,16.26
2017-10-24T18:38:09.887Z,16.21
2017-10-24T18:40:37.956Z,16.05
2017-10-24T18:43:06.527Z,16.08
2017-10-24T18:45:34.303Z,16.00
2017-10-24T18:48:02.167Z,15.75
2017-10-24T18:50:31.307Z,15.75
2017-10-24T18:52:59.042Z,15.74
2017-10-24T18:55:26.878Z,15.99
2017-10-24T18:57:55.074Z,16.03
2017-10-24T19:00:22.778Z,16.06
2017-10-24T19:02:50.396Z,16.08
2017-10-24T19:05:18.247Z,16.00
2017-10-24T19:07:45.982Z,15.96
2017-10-24T19:10:13.781Z,16.01
2017-10-24T19:12:41.851Z,16.05
2017-10-24T19:15:09.707Z,16.02
2017-10-24T19:17:38.086Z,15.77
2017-10-24T19:20:05.855Z,15.86
2017-10-24T19:22:33.613Z,16.03
2017-10-24T19:25:02.197Z,15.92
2017-10-24T19:27:30.165Z,15.82
2017-10-24T19:29:58.134Z,16.15
2017-10-24T19:32:26.001Z,16.24
2017-10-24T19:34:53.990Z,16.13
2017-10-24T19:37:22.756Z,16.25
2017-10-24T19:39:50.993Z,16.24
2017-10-24T19:42:18.912Z,16.01
2017-10-24T19:44:47.599Z,16.09
2017-10-24T19:47:15.450Z,16.31
2017-10-24T19:49:43.524Z,16.36
2017-10-24T19:52:11.313Z,16.43
2017-10-24T19:54:39.060Z,16.32
2017-10-24T19:57:07.122Z,16.39
2017-10-24T19:59:35.254Z,16.34
2017-10-24T20:02:03.222Z,16.25
2017-10-24T20:04:31.044Z,16.32
2017-10-24T20:06:58.798Z,16.44
2017-10-24T20:09:26.677Z,16.63
2017-10-24T20:11:55.446Z,16.67
2017-10-24T20:14:24.143Z,16.59
2017-10-24T20:16:51.910Z,16.44
2017-10-24T20:19:19.863Z,16.46
2017-10-24T20:21:47.650Z,16.41
2017-10-24T20:24:16.223Z,16.72
2017-10-24T20:26:44.385Z,16.55
2017-10-24T20:29:11.984Z,16.51
2017-10-24T20:31:40.014Z,16.23
2017-10-24T20:34:08.002Z,16.40
2017-10-24T20:36:36.657Z,16.34
2017-10-24T20:39:04.636Z,16.30
2017-10-24T20:41:32.401Z,16.24
2017-10-24T20:44:00.177Z,16.49
2017-10-24T20:46:28.033Z,16.55
2017-10-24T20:48:56.010Z,16.50
2017-10-24T20:51:23.866Z,16.54
2017-10-24T20:53:51.642Z,16.51
2017-10-24T20:56:19.804Z,16.69
2017-10-24T20:58:47.566Z,16.56
2017-10-24T21:01:15.127Z,16.43
2017-10-24T21:03:43.199Z,16.47
2017-10-24T21:06:10.965Z,16.52
2017-10-24T21:08:38.522Z,16.47
2017-10-24T21:11:06.605Z,16.60
2017-10-24T21:13:34.358Z,16.53
2017-10-24T21:16:02.221Z,16.43
2017-10-24T21:18:29.940Z,16.37
2017-10-24T21:20:57.663Z,16.37
2017-10-24T21:23:25.221Z,16.21
2017-10-24T21:25:53.095Z,16.21
2017-10-24T21:28:20.837Z,15.96
2017-10-24T21:30:48.388Z,16.38
2017-10-24T21:33:16.366Z,16.29
2017-10-24T21:35:43.923Z,16.58
2017-10-24T21:38:11.443Z,16.59
2017-10-24T21:40:38.987Z,16.72
2017-10-24T21:43:06.506Z,16.79
2017-10-24T21:45:34.058Z,16.87
2017-10-24T21:48:01.619Z,17.02
2017-10-24T21:50:29.177Z,16.97
2017-10-24T21:52:56.687Z,17.06
2017-10-24T21:55:24.379Z,16.90
2017-10-24T21:57:51.901Z,16.91
2017-10-24T22:03:19.737Z,16.83
2017-10-24T22:05:47.503Z,16.80
2017-10-24T22:08:15.065Z,16.69
2017-10-24T22:10:42.622Z,16.62
2017-10-24T22:13:10.403Z,16.77
2017-10-24T22:15:37.915Z,16.64
2017-10-24T22:18:05.433Z,16.68
2017-10-24T22:20:33.145Z,16.70
2017-10-24T22:23:00.664Z,16.85
2017-10-24T22:25:28.183Z,16.78
2017-10-24T22:27:56.149Z,16.79
2017-10-24T22:30:23.710Z,16.71
2017-10-24T22:32:51.349Z,16.71
2017-10-24T22:35:18.915Z,16.51
2017-10-24T22:37:47.372Z,16.41
2017-10-24T22:40:14.881Z,16.57
2017-10-24T22:42:42.630Z,16.48
2017-10-24T22:45:10.158Z,16.52
2017-10-24T22:47:37.703Z,16.30
2017-10-24T22:50:05.701Z,16.55
2017-10-24T22:52:33.220Z,16.38
2017-10-24T22:55:00.836Z,16.36
2017-10-24T22:57:28.703Z,16.46
2017-10-24T22:59:56.263Z,16.46
2017-10-24T23:02:23.821Z,16.59
2017-10-24T23:04:51.695Z,16.48
2017-10-24T23:07:19.252Z,16.64
2017-10-24T23:09:46.809Z,16.50
2017-10-24T23:12:14.368Z,16.46
2017-10-24T23:14:41.903Z,16.48
2017-10-24T23:17:09.418Z,16.37
2017-10-24T23:19:36.971Z,16.48
2017-10-24T23:22:04.497Z,16.74
2017-10-24T23:24:32.058Z,16.64
2017-10-24T23:26:59.821Z,16.63
2017-10-24T23:29:27.335Z,16.81
2017-10-24T23:31:54.852Z,16.76
2017-10-24T23:34:22.405Z,16.65
2017-10-24T23:36:49.923Z,16.91
2017-10-24T23:39:17.447Z,16.89
2017-10-24T23:41:45.135Z,16.90
2017-10-24T23:44:12.666Z,16.96
2017-10-24T23:46:40.179Z,17.11
2017-10-24T23:49:07.747Z,17.02
2017-10-24T23:51:36.129Z,16.72
2017-10-24T23:54:04.609Z,16.72
2017-10-24T23:56:32.373Z,16.66
2017-10-24T23:58:59.937Z,16.76
